Barhom II — 5IM534 — position and weather

sailwx.info

Track history (hours):
 
Tides and Currents Weather Stations Pressure Air Temp Water Temp Dewpoint Dewpoint Depression Visibility Wind Speed Wind Dir Waves Ship Positions

Barhom II

Last reported at 2017-Mar-19 00:24 UTC. Time now 2017-Mar-25 17:23 UTC.
Position N 34°60' E 015°50'.

Length 83 m.

Type: Cargo ship. MMSI: 677043400.

Date/timePositionNaut miles runAvg speedWind from/ knotsBaromVisibWave heightAir tempDewpointWater temp
2017-Mar-19 00:24N 34°60' E 015°50'1011.3
2017-Mar-18 23:33N 35°01' E 015°38'1111.1
2017-Mar-18 22:33N 35°02' E 015°25'1010.4
2017-Mar-18 21:33N 35°05' E 015°13'1110.8
2017-Mar-18 20:33N 35°08' E 014°60'1010.4
2017-Mar-18 19:33N 35°14' E 014°49'1110.4
2017-Mar-18 18:31N 35°20' E 014°39'1110.1
2017-Mar-18 17:24N 35°28' E 014°28'910.1
2017-Mar-18 16:33N 35°33' E 014°20'1010.3
2017-Mar-18 15:33N 35°39' E 014°09'1110.6
2017-Mar-18 14:33N 35°45' E 013°59'1210.9
2017-Mar-18 13:30N 35°51' E 013°47'1010.6
2017-Mar-18 12:30N 35°58' E 013°37'1010.9
2017-Mar-18 11:33N 36°04' E 013°27'1111.2
2017-Mar-18 10:31N 36°11' E 013°15'1111.2
2017-Mar-18 09:33N 36°17' E 013°04'1111.1
2017-Mar-18 08:33N 36°24' E 012°54'1211.2
2017-Mar-18 07:30N 36°32' E 012°42'1111.1
2017-Mar-18 06:32N 36°39' E 012°32'11710.4
2017-Mar-17 19:14N 37°31' E 010°20'20110.7
2017-Mar-17 00:26N 37°40' E 006°07'155 9.8
2017-Mar-16 08:33N 37°56' E 002°52'9 8.8
2017-Mar-16 07:33N 37°57' E 002°41'18 8.6
2017-Mar-16 05:28N 37°57' E 002°18'10 8.4
2017-Mar-16 04:17N 37°57' E 002°06'6 8.4
2017-Mar-16 03:33N 37°57' E 001°58'107 7.4
2017-Mar-15 13:08N 37°43' W 000°17'4 6.4
2017-Mar-15 12:34N 37°41' W 000°20'6 6.3
2017-Mar-15 11:33N 37°37' W 000°26'6 5.8
2017-Mar-15 10:33N 37°33' W 000°31'6 5.7
2017-Mar-15 09:33N 37°32' W 000°38'6 6.1
2017-Mar-15 08:33N 37°32' W 000°46'7 7.2
2017-Mar-15 07:33N 37°31' W 000°55'  
2017-Mar-11 11:31N 37°31' W 000°56'1010.1
2017-Mar-11 10:33N 37°32' W 000°43'9 9.6
2017-Mar-11 09:33N 37°36' W 000°33'1010.0
2017-Mar-11 08:33N 37°44' W 000°26'1010.1
2017-Mar-11 07:34N 37°52' W 000°18'1010.1
2017-Mar-11 06:33N 38°01' W 000°11'1010.0
2017-Mar-11 05:33N 38°09' W 000°04'10 9.9
2017-Mar-11 04:33N 38°17' E 000°04'10 9.8
2017-Mar-11 03:33N 38°26' E 000°10'1110.6
2017-Mar-11 02:33N 38°35' E 000°17'1010.3
2017-Mar-11 01:33N 38°44' E 000°23'3410.6
2017-Mar-10 22:20N 39°15' E 000°39'3210.6
2017-Mar-10 19:19N 39°46' E 000°53'810.5
2017-Mar-10 18:33N 39°53' E 000°56'1010.5
2017-Mar-10 17:33N 40°03' E 000°59'1010.5
2017-Mar-10 16:33N 40°14' E 001°01'1010.4
2017-Mar-10 15:33N 40°24' E 001°03'1010.3
2017-Mar-10 14:33N 40°34' E 001°06'1010.4
2017-Mar-10 13:33N 40°45' E 001°08'1010.0
2017-Mar-10 12:33N 40°54' E 001°11'11 2.2
2017-Mar-10 07:28N 41°05' E 001°15'0 0.0
2017-Mar-10 03:28N 41°05' E 001°15'0 0.0
2017-Mar-10 02:28N 41°05' E 001°15'0 0.0
2017-Mar-09 23:16N 41°05' E 001°15'0 0.0
2017-Mar-09 22:28N 41°05' E 001°15'0 0.0
2017-Mar-09 21:28N 41°05' E 001°15'0 0.0
2017-Mar-09 20:10N 41°05' E 001°15'0 0.1
2017-Mar-09 19:22N 41°05' E 001°15'0 0.1
2017-Mar-09 18:28N 41°05' E 001°15'0 0.0
2017-Mar-09 17:22N 41°05' E 001°15'0 0.0
2017-Mar-09 16:28N 41°05' E 001°15'0 0.0
2017-Mar-09 15:25N 41°05' E 001°15'0 0.0
2017-Mar-09 14:31N 41°05' E 001°15'0 0.0
2017-Mar-09 13:22N 41°05' E 001°15'0 0.0
2017-Mar-09 12:32N 41°05' E 001°15'0 0.0
2017-Mar-09 11:26N 41°05' E 001°15'0 0.0
2017-Mar-09 10:14N 41°05' E 001°15'0 0.0
2017-Mar-09 08:26N 41°05' E 001°15'0 0.0
2017-Mar-09 05:32N 41°05' E 001°15'0 0.0
2017-Mar-09 04:26N 41°05' E 001°15'0 0.0
2017-Mar-09 02:26N 41°05' E 001°15'  
Track history (hours):
 
Tides and Currents Weather Stations Pressure Air Temp Water Temp Dewpoint Dewpoint Depression Visibility Wind Speed Wind Dir Waves Ship Positions

Barhom II

Last reported at 2017-Mar-19 00:24 UTC. Time now 2017-Mar-25 17:23 UTC.
Position N 34°60' E 015°50'.

Length 83 m.

Type: Cargo ship. MMSI: 677043400.

Date/timePositionNaut miles runAvg speedWind from/ knotsBaromVisibWave heightAir tempDewpointWater temp
2017-Mar-19 00:24N 34°60' E 015°50'1011.3
2017-Mar-18 23:33N 35°01' E 015°38'1111.1
2017-Mar-18 22:33N 35°02' E 015°25'1010.4
2017-Mar-18 21:33N 35°05' E 015°13'1110.8
2017-Mar-18 20:33N 35°08' E 014°60'1010.4
2017-Mar-18 19:33N 35°14' E 014°49'1110.4
2017-Mar-18 18:31N 35°20' E 014°39'1110.1
2017-Mar-18 17:24N 35°28' E 014°28'910.1
2017-Mar-18 16:33N 35°33' E 014°20'1010.3
2017-Mar-18 15:33N 35°39' E 014°09'1110.6
2017-Mar-18 14:33N 35°45' E 013°59'1210.9
2017-Mar-18 13:30N 35°51' E 013°47'1010.6
2017-Mar-18 12:30N 35°58' E 013°37'1010.9
2017-Mar-18 11:33N 36°04' E 013°27'1111.2
2017-Mar-18 10:31N 36°11' E 013°15'1111.2
2017-Mar-18 09:33N 36°17' E 013°04'1111.1
2017-Mar-18 08:33N 36°24' E 012°54'1211.2
2017-Mar-18 07:30N 36°32' E 012°42'1111.1
2017-Mar-18 06:32N 36°39' E 012°32'11710.4
2017-Mar-17 19:14N 37°31' E 010°20'20110.7
2017-Mar-17 00:26N 37°40' E 006°07'155 9.8
2017-Mar-16 08:33N 37°56' E 002°52'9 8.8
2017-Mar-16 07:33N 37°57' E 002°41'18 8.6
2017-Mar-16 05:28N 37°57' E 002°18'10 8.4
2017-Mar-16 04:17N 37°57' E 002°06'6 8.4
2017-Mar-16 03:33N 37°57' E 001°58'107 7.4
2017-Mar-15 13:08N 37°43' W 000°17'4 6.4
2017-Mar-15 12:34N 37°41' W 000°20'6 6.3
2017-Mar-15 11:33N 37°37' W 000°26'6 5.8
2017-Mar-15 10:33N 37°33' W 000°31'6 5.7
2017-Mar-15 09:33N 37°32' W 000°38'6 6.1
2017-Mar-15 08:33N 37°32' W 000°46'7 7.2
2017-Mar-15 07:33N 37°31' W 000°55'  
2017-Mar-11 11:31N 37°31' W 000°56'1010.1
2017-Mar-11 10:33N 37°32' W 000°43'9 9.6
2017-Mar-11 09:33N 37°36' W 000°33'1010.0
2017-Mar-11 08:33N 37°44' W 000°26'1010.1
2017-Mar-11 07:34N 37°52' W 000°18'1010.1
2017-Mar-11 06:33N 38°01' W 000°11'1010.0
2017-Mar-11 05:33N 38°09' W 000°04'10 9.9
2017-Mar-11 04:33N 38°17' E 000°04'10 9.8
2017-Mar-11 03:33N 38°26' E 000°10'1110.6
2017-Mar-11 02:33N 38°35' E 000°17'1010.3
2017-Mar-11 01:33N 38°44' E 000°23'3410.6
2017-Mar-10 22:20N 39°15' E 000°39'3210.6
2017-Mar-10 19:19N 39°46' E 000°53'810.5
2017-Mar-10 18:33N 39°53' E 000°56'1010.5
2017-Mar-10 17:33N 40°03' E 000°59'1010.5
2017-Mar-10 16:33N 40°14' E 001°01'1010.4
2017-Mar-10 15:33N 40°24' E 001°03'1010.3
2017-Mar-10 14:33N 40°34' E 001°06'1010.4
2017-Mar-10 13:33N 40°45' E 001°08'1010.0
2017-Mar-10 12:33N 40°54' E 001°11'11 2.2
2017-Mar-10 07:28N 41°05' E 001°15'0 0.0
2017-Mar-10 03:28N 41°05' E 001°15'0 0.0
2017-Mar-10 02:28N 41°05' E 001°15'0 0.0
2017-Mar-09 23:16N 41°05' E 001°15'0 0.0
2017-Mar-09 22:28N 41°05' E 001°15'0 0.0
2017-Mar-09 21:28N 41°05' E 001°15'0 0.0
2017-Mar-09 20:10N 41°05' E 001°15'0 0.1
2017-Mar-09 19:22N 41°05' E 001°15'0 0.1
2017-Mar-09 18:28N 41°05' E 001°15'0 0.0
2017-Mar-09 17:22N 41°05' E 001°15'0 0.0
2017-Mar-09 16:28N 41°05' E 001°15'0 0.0
2017-Mar-09 15:25N 41°05' E 001°15'0 0.0
2017-Mar-09 14:31N 41°05' E 001°15'0 0.0
2017-Mar-09 13:22N 41°05' E 001°15'0 0.0
2017-Mar-09 12:32N 41°05' E 001°15'0 0.0
2017-Mar-09 11:26N 41°05' E 001°15'0 0.0
2017-Mar-09 10:14N 41°05' E 001°15'0 0.0
2017-Mar-09 08:26N 41°05' E 001°15'0 0.0
2017-Mar-09 05:32N 41°05' E 001°15'0 0.0
2017-Mar-09 04:26N 41°05' E 001°15'0 0.0
2017-Mar-09 02:26N 41°05' E 001°15'  

Dump ship's entire track history